Strona główna
METAR-TAF:

METAR-TAF

Lotnisko :

Port lotniczy Luksemburg

Luksemburg, Luksemburg

Szerokość geograficzna: 49-37N, Długość geograficzna: 006-13E, wysokość: 376 m

Aktualna obserwacja pogody

Raport powstał 28 minut temu, godzina 02:20 UTC
Wiatr 7 kt od północny wschód
Temperatura 17°C
Wilgotność 68%
Ciśnienie 1016 hPa
Widzialność 10 km lub więcej

METAR: ELLX 180220Z AUTO 04007KT 9999 NCD 17/11 Q1016 NOSIG

czas: 04:48 (02:48 UTC)

Prognoza

Raport powstał 3 godziny i 48 minut temu, godzina 23:00 UTC
Prognoza ważna od 18 godzina 00 UTC do 19 godzina 06 UTC
Wiatr 5 kt od wschodnio-północny wschód
Widzialność 10 km lub więcej
Brak chmur poniżej 1500 m i brak chmur cumulonimbus
Prawdopodobieństwo 40% :
Przejściowo
od 18 godzina 23 UTC do 19 godzina 03 UTC
Widzialność: 5000 m
Rozproszone chmury na wysokości 5000 ft, Cumulusy wypiętrznone.
przelotny opad deszczu

TAF: ELLX 172300Z 1800/1906 06005KT CAVOK PROB40 TEMPO 1823/1903 5000 SHRA SCT050TCU

Obserwacja i prognoza pogody dla ponad 4000 lotnisk (raport METAR i TAF).

Dostępne stacje oznaczono żółtymi i czerwonymi punktami na mapie.

Najedź kursorem aby zobaczyć nazwę stacji.

Kliknij aby zobaczyć obserwacje i prognozy pogody.

Aby zmienić mapę: kliknij na zielony przycisk z czarnym krzyżykiem, aby powiększyć; na zielony przycisk z myślnikiem, aby pomniejszyć; na zielone strzałki, aby przejść do map sąsiednich.


METAR-TAF: